Time;durP1;ratioP1;P1;durP2;ratioP2;P2;SDS_P1;SDS_P2;PMS_P1;PMS_P2;Temp;Humidity;BMP_temperature;BMP_pressure;BME280_temperature;BME280_humidity;BME280_pressure;Samples;Min_cycle;Max_cycle;Signal;HPM_P1;HPM_P2
2021/01/31 00:01:52;;;;;;;;;;;3.00;99.90;;;;;;5071244;28;20029;-76
2021/01/31 00:04:18;;;;;;;;;;;2.90;99.90;;;;;;5071028;28;19915;-77
2021/01/31 00:06:43;;;;;;;;;;;2.90;99.90;;;;;;5069424;28;20348;-77
2021/01/31 00:09:10;;;;;;;;;;;2.90;99.90;;;;;;5070535;28;19920;-77
2021/01/31 00:11:35;;;;;;;;;;;2.90;99.90;;;;;;5079795;28;19913;-77
2021/01/31 00:14:01;;;;;;;;;;;2.90;99.90;;;;;;5067447;28;20304;-77
2021/01/31 00:16:26;;;;;;;;;;;2.80;99.90;;;;;;5072283;28;19962;-77
2021/01/31 00:18:52;;;;;;;;;;;2.80;99.90;;;;;;5074763;28;19908;-77
2021/01/31 00:21:17;;;;;;;;;;;2.80;99.90;;;;;;5075055;28;19915;-77
2021/01/31 00:23:43;;;;;;;;;;;2.80;99.90;;;;;;5074832;28;20332;-77
2021/01/31 00:26:08;;;;;;;;;;;2.80;99.90;;;;;;5074350;28;20353;-77
2021/01/31 00:28:34;;;;;;;;;;;2.80;99.90;;;;;;5074673;28;19999;-77
2021/01/31 00:30:59;;;;;;;;;;;2.80;99.90;;;;;;5074728;28;19920;-76
2021/01/31 00:33:26;;;;;;;;;;;2.80;99.90;;;;;;5074575;28;19965;-77
2021/01/31 00:35:52;;;;;;;;;;;2.80;99.90;;;;;;5074352;28;19912;-77
2021/01/31 00:38:19;;;;;;;;;;;2.80;99.90;;;;;;5081830;28;20410;-76
2021/01/31 00:40:44;;;;;;;;;;;2.80;99.90;;;;;;5075030;28;19909;-77
2021/01/31 00:43:10;;;;;;;;;;;2.80;99.90;;;;;;5074629;28;19931;-77
2021/01/31 00:45:36;;;;;;;;;;;2.80;99.90;;;;;;5072957;28;19916;-77
2021/01/31 00:48:01;;;;;;;;;;;2.80;99.90;;;;;;5074169;28;19978;-77
2021/01/31 00:50:28;;;;;;;;;;;2.80;99.90;;;;;;5092028;28;19916;-77
2021/01/31 00:52:54;;;;;;;;;;;2.80;99.90;;;;;;5093596;28;19916;-77
2021/01/31 00:55:19;;;;;;;;;;;2.80;99.90;;;;;;5093500;28;19912;-77
2021/01/31 00:57:45;;;;;;;;;;;2.70;99.90;;;;;;5093437;28;19914;-76
2021/01/31 01:00:13;;;;;;;;;;;2.70;99.90;;;;;;5093728;28;19908;-77
2021/01/31 01:02:38;;;;;;;;;;;2.60;99.90;;;;;;5093523;28;19908;-77
2021/01/31 01:05:04;;;;;;;;;;;2.60;99.90;;;;;;5093891;28;19996;-77
2021/01/31 01:07:30;;;;;;;;;;;2.60;99.90;;;;;;5088964;28;19912;-77
2021/01/31 01:09:55;;;;;;;;;;;2.60;99.90;;;;;;5083247;28;19916;-77
2021/01/31 01:12:20;;;;;;;;;;;2.50;99.90;;;;;;5074199;28;20334;-77
2021/01/31 01:14:46;;;;;;;;;;;2.50;99.90;;;;;;5072720;28;19916;-77
2021/01/31 01:17:11;;;;;;;;;;;2.50;99.90;;;;;;5072204;28;19918;-77
2021/01/31 01:19:37;;;;;;;;;;;2.50;99.90;;;;;;5073881;28;20380;-77
2021/01/31 01:22:02;;;;;;;;;;;2.50;99.90;;;;;;5074145;28;19943;-77
2021/01/31 01:24:28;;;;;;;;;;;2.50;99.90;;;;;;5073710;28;20284;-77
2021/01/31 01:26:53;;;;;;;;;;;2.50;99.90;;;;;;5072775;28;19979;-77
2021/01/31 01:29:19;;;;;;;;;;;2.60;99.90;;;;;;5072416;28;19919;-77
2021/01/31 01:31:44;;;;;;;;;;;2.60;99.90;;;;;;5073394;28;20432;-77
2021/01/31 01:34:10;;;;;;;;;;;2.60;99.90;;;;;;5073602;28;19908;-77
2021/01/31 01:36:35;;;;;;;;;;;2.70;99.90;;;;;;5071929;28;19919;-77
2021/01/31 01:39:01;;;;;;;;;;;2.70;99.90;;;;;;5083419;28;19908;-77
2021/01/31 01:41:34;;;;;;;;;;;2.70;99.90;;;;;;5081330;28;19908;-77
2021/01/31 01:43:59;;;;;;;;;;;2.80;99.90;;;;;;5073564;28;19913;-77
2021/01/31 01:46:27;;;;;;;;;;;2.80;99.90;;;;;;5071775;28;19961;-77
2021/01/31 01:48:58;;;;;;;;;;;2.80;99.90;;;;;;5072887;28;20376;-77
2021/01/31 01:51:28;;;;;;;;;;;2.80;99.90;;;;;;5073287;28;19915;-77
2021/01/31 01:53:53;;;;;;;;;;;2.80;99.90;;;;;;5072896;28;19912;-77
2021/01/31 01:56:24;;;;;;;;;;;2.80;99.90;;;;;;5072816;28;19912;-77
2021/01/31 01:58:52;;;;;;;;;;;2.80;99.90;;;;;;5081341;28;19912;-77
2021/01/31 02:01:20;;;;;;;;;;;2.80;99.90;;;;;;5092569;28;19951;-76
2021/01/31 02:03:45;;;;;;;;;;;2.70;99.90;;;;;;5092612;28;19931;-77
2021/01/31 02:06:16;;;;;;;;;;;2.70;99.90;;;;;;5092055;28;20357;-77
2021/01/31 02:08:42;;;;;;;;;;;2.80;99.90;;;;;;5081296;28;20346;-76
2021/01/31 02:11:08;;;;;;;;;;;2.70;99.90;;;;;;5072912;28;20003;-77
2021/01/31 02:13:34;;;;;;;;;;;2.70;99.90;;;;;;5072502;28;19919;-77
2021/01/31 02:16:00;;;;;;;;;;;2.70;99.90;;;;;;5072283;28;19974;-77
2021/01/31 02:18:36;;;;;;;;;;;2.70;99.90;;;;;;5071196;28;19908;-77
2021/01/31 02:21:05;;;;;;;;;;;2.70;99.90;;;;;;5072810;28;20030;-77
2021/01/31 02:23:49;;;;;;;;;;;2.70;99.90;;;;;;5072550;28;19952;-77
2021/01/31 02:26:15;;;;;;;;;;;2.70;99.90;;;;;;5078045;28;19913;-77
2021/01/31 02:29:00;;;;;;;;;;;2.70;99.90;;;;;;5073807;28;20281;-77
2021/01/31 02:31:41;;;;;;;;;;;2.70;99.90;;;;;;5070876;28;19916;-77
2021/01/31 02:34:14;;;;;;;;;;;2.70;99.90;;;;;;5072410;28;20365;-77
2021/01/31 02:36:46;;;;;;;;;;;2.60;99.90;;;;;;5071701;28;20296;-77
2021/01/31 02:39:29;;;;;;;;;;;2.60;99.90;;;;;;5071247;28;19908;-77
2021/01/31 02:42:02;;;;;;;;;;;2.60;99.90;;;;;;5078485;28;19908;-77
2021/01/31 02:44:28;;;;;;;;;;;2.60;99.90;;;;;;5080238;28;19923;-77
2021/01/31 02:46:59;;;;;;;;;;;2.60;99.90;;;;;;5071511;28;19908;-77
2021/01/31 02:49:26;;;;;;;;;;;2.70;99.90;;;;;;5071989;28;19993;-77
2021/01/31 02:51:58;;;;;;;;;;;2.70;99.90;;;;;;5071815;28;20020;-77
2021/01/31 02:54:27;;;;;;;;;;;2.70;99.90;;;;;;5072017;28;19909;-77
2021/01/31 02:56:59;;;;;;;;;;;2.70;99.90;;;;;;5069894;28;20348;-77
2021/01/31 02:59:27;;;;;;;;;;;2.60;99.90;;;;;;5077158;28;19908;-77
2021/01/31 03:02:04;;;;;;;;;;;2.60;99.90;;;;;;5079595;28;19962;-77
2021/01/31 03:04:42;;;;;;;;;;;2.60;99.90;;;;;;5071951;28;19912;-77
2021/01/31 03:07:10;;;;;;;;;;;2.60;99.90;;;;;;5070072;28;20006;-77
2021/01/31 03:09:58;;;;;;;;;;;2.60;99.90;;;;;;5071598;28;19908;-77
2021/01/31 03:12:34;;;;;;;;;;;2.50;99.90;;;;;;5085562;28;20277;-77
2021/01/31 03:15:05;;;;;;;;;;;2.50;99.90;;;;;;5091028;28;19912;-77
2021/01/31 03:17:43;;;;;;;;;;;2.50;99.90;;;;;;5074771;28;19957;-77
2021/01/31 03:20:19;;;;;;;;;;;2.50;99.90;;;;;;5071370;28;19912;-76
2021/01/31 03:22:48;;;;;;;;;;;2.40;99.90;;;;;;5071428;28;19912;-77
2021/01/31 03:25:18;;;;;;;;;;;2.40;99.90;;;;;;5071613;28;19915;-76
2021/01/31 03:27:44;;;;;;;;;;;2.40;99.90;;;;;;5075050;28;19909;-77
2021/01/31 03:30:11;;;;;;;;;;;2.30;99.90;;;;;;5077018;28;19958;-77
2021/01/31 03:32:47;;;;;;;;;;;2.30;99.90;;;;;;5069820;28;20361;-77
2021/01/31 03:35:19;;;;;;;;;;;2.30;99.90;;;;;;5084584;28;20383;-77
2021/01/31 03:37:53;;;;;;;;;;;2.20;99.90;;;;;;5090181;28;19908;-77
2021/01/31 03:40:18;;;;;;;;;;;2.20;99.90;;;;;;5090614;28;19951;-76
2021/01/31 03:42:45;;;;;;;;;;;2.10;99.90;;;;;;5090466;28;19958;-77
2021/01/31 03:45:11;;;;;;;;;;;2.10;99.90;;;;;;5090515;28;20375;-77
2021/01/31 03:47:57;;;;;;;;;;;2.10;99.90;;;;;;5090237;28;19920;-77
2021/01/31 03:50:22;;;;;;;;;;;2.10;99.90;;;;;;5093096;28;19912;-77
2021/01/31 03:52:48;;;;;;;;;;;2.10;99.90;;;;;;5094736;28;19917;-77
2021/01/31 03:55:13;;;;;;;;;;;2.10;99.90;;;;;;5094797;28;19994;-77
2021/01/31 03:57:43;;;;;;;;;;;2.10;99.90;;;;;;5088882;28;19913;-77
2021/01/31 04:00:29;;;;;;;;;;;2.10;99.90;;;;;;5085123;28;19908;-77
2021/01/31 04:03:13;;;;;;;;;;;2.10;99.90;;;;;;5074590;28;19909;-77
2021/01/31 04:05:54;;;;;;;;;;;2.20;99.90;;;;;;5089053;28;20307;-77
2021/01/31 04:08:19;;;;;;;;;;;2.20;99.90;;;;;;5094383;28;19912;-77
2021/01/31 04:10:45;;;;;;;;;;;2.20;99.90;;;;;;5094361;28;19968;-77
2021/01/31 04:13:11;;;;;;;;;;;2.20;99.90;;;;;;5094259;28;20354;-77
2021/01/31 04:15:39;;;;;;;;;;;2.30;99.90;;;;;;5094151;28;20319;-77
2021/01/31 04:18:05;;;;;;;;;;;2.20;99.90;;;;;;5094224;28;19912;-77
2021/01/31 04:20:31;;;;;;;;;;;2.20;99.90;;;;;;5093950;28;19920;-77
2021/01/31 04:22:57;;;;;;;;;;;2.20;99.90;;;;;;5094248;28;19912;-76
2021/01/31 04:25:22;;;;;;;;;;;2.20;99.90;;;;;;5092832;28;19957;-77
2021/01/31 04:27:48;;;;;;;;;;;2.20;99.90;;;;;;5089610;28;20337;-77
2021/01/31 04:30:13;;;;;;;;;;;2.20;99.90;;;;;;5082206;28;19982;-77
2021/01/31 04:32:39;;;;;;;;;;;2.20;99.90;;;;;;5079466;28;20317;-77
2021/01/31 04:35:06;;;;;;;;;;;2.20;99.90;;;;;;5074409;28;19909;-77
2021/01/31 04:37:31;;;;;;;;;;;2.20;99.90;;;;;;5074136;28;19909;-77
2021/01/31 04:39:57;;;;;;;;;;;2.10;99.90;;;;;;5073063;28;19908;-77
2021/01/31 04:42:22;;;;;;;;;;;2.10;99.90;;;;;;5073167;28;20353;-77
2021/01/31 04:44:48;;;;;;;;;;;2.10;99.90;;;;;;5074365;28;19962;-77
2021/01/31 04:47:20;;;;;;;;;;;2.10;99.90;;;;;;5074188;28;20011;-77
2021/01/31 04:50:04;;;;;;;;;;;2.10;99.90;;;;;;5074500;28;19909;-77
2021/01/31 04:52:30;;;;;;;;;;;2.10;99.90;;;;;;5074416;28;19916;-77
2021/01/31 04:55:05;;;;;;;;;;;2.10;99.90;;;;;;5077283;28;19912;-77
2021/01/31 04:57:38;;;;;;;;;;;2.00;99.90;;;;;;5091626;28;19948;-77
2021/01/31 05:00:05;;;;;;;;;;;2.00;99.90;;;;;;5080851;28;20282;-76
2021/01/31 05:02:39;;;;;;;;;;;2.00;99.90;;;;;;5073162;28;19920;-77
2021/01/31 05:05:11;;;;;;;;;;;2.10;99.90;;;;;;5073929;28;19908;-77
2021/01/31 05:07:39;;;;;;;;;;;2.10;99.90;;;;;;5093128;28;19908;-76
2021/01/31 05:10:08;;;;;;;;;;;2.10;99.90;;;;;;5093437;28;20311;-77
2021/01/31 05:12:40;;;;;;;;;;;2.10;99.90;;;;;;5080334;28;19912;-77
2021/01/31 05:15:12;;;;;;;;;;;2.10;99.90;;;;;;5075099;28;19915;-77
2021/01/31 05:17:38;;;;;;;;;;;2.10;99.90;;;;;;5079398;28;19908;-77
2021/01/31 05:20:05;;;;;;;;;;;2.10;99.90;;;;;;5086069;28;19915;-77
2021/01/31 05:22:33;;;;;;;;;;;2.00;99.90;;;;;;5073697;28;19913;-77
2021/01/31 05:24:59;;;;;;;;;;;2.00;99.90;;;;;;5073659;28;19912;-77
2021/01/31 05:27:27;;;;;;;;;;;2.00;99.90;;;;;;5079518;28;19908;-77
2021/01/31 05:29:53;;;;;;;;;;;2.10;99.90;;;;;;5088136;28;20397;-77
2021/01/31 05:32:19;;;;;;;;;;;2.20;99.90;;;;;;5073545;28;19958;-77
2021/01/31 05:34:46;;;;;;;;;;;2.30;99.90;;;;;;5073893;28;20284;-76
2021/01/31 05:37:15;;;;;;;;;;;2.30;99.90;;;;;;5072542;28;19995;-76
2021/01/31 05:39:43;;;;;;;;;;;2.30;99.90;;;;;;5086094;28;19912;-76
2021/01/31 05:42:18;;;;;;;;;;;2.30;99.90;;;;;;5074761;28;19908;-76
2021/01/31 05:44:44;;;;;;;;;;;2.30;99.90;;;;;;5073401;28;19915;-77
2021/01/31 05:47:22;;;;;;;;;;;2.30;99.90;;;;;;5072830;28;19995;-76
2021/01/31 05:49:50;;;;;;;;;;;2.40;99.90;;;;;;5082845;28;19941;-76
2021/01/31 05:52:18;;;;;;;;;;;2.40;99.90;;;;;;5089126;28;19919;-77
2021/01/31 05:54:44;;;;;;;;;;;2.40;99.90;;;;;;5073077;28;19917;-76
2021/01/31 05:57:28;;;;;;;;;;;2.30;99.90;;;;;;5072647;28;20053;-76
2021/01/31 05:59:53;;;;;;;;;;;2.30;99.90;;;;;;5072930;28;19908;-77
2021/01/31 06:02:24;;;;;;;;;;;2.30;99.90;;;;;;5072988;28;19916;-77
2021/01/31 06:05:07;;;;;;;;;;;2.30;99.90;;;;;;5072824;28;19916;-77
2021/01/31 06:07:32;;;;;;;;;;;2.30;99.90;;;;;;5084934;28;19909;-77
2021/01/31 06:09:59;;;;;;;;;;;2.30;99.90;;;;;;5077809;28;20052;-77
2021/01/31 06:12:26;;;;;;;;;;;2.30;99.90;;;;;;5076216;28;19912;-77
2021/01/31 06:15:27;;;;;;;;;;;2.30;99.90;;;;;;5072727;28;19912;-76
2021/01/31 06:17:55;;;;;;;;;;;2.30;99.90;;;;;;5028473;28;19916;-77
2021/01/31 06:20:31;;;;;;;;;;;2.30;99.90;;;;;;5069712;28;20006;-77
2021/01/31 06:22:57;;;;;;;;;;;2.20;99.90;;;;;;5078018;28;19935;-77
2021/01/31 06:25:25;;;;;;;;;;;2.20;99.90;;;;;;5091967;28;20539;-77
2021/01/31 06:27:52;;;;;;;;;;;2.20;99.90;;;;;;5091640;28;20003;-77
2021/01/31 06:30:31;;;;;;;;;;;2.20;99.90;;;;;;5090493;28;19912;-77
2021/01/31 06:32:56;;;;;;;;;;;2.20;99.90;;;;;;5090614;28;20365;-77
2021/01/31 06:35:23;;;;;;;;;;;2.20;99.90;;;;;;5091773;28;19940;-77
2021/01/31 06:37:51;;;;;;;;;;;2.30;99.90;;;;;;5091418;28;19915;-77
2021/01/31 06:40:29;;;;;;;;;;;2.30;99.90;;;;;;5091467;28;19951;-77
2021/01/31 06:42:59;;;;;;;;;;;2.30;99.90;;;;;;5091724;28;19908;-77
2021/01/31 06:45:28;;;;;;;;;;;2.20;99.90;;;;;;5081740;28;20021;-77
2021/01/31 06:47:56;;;;;;;;;;;2.10;99.90;;;;;;5085259;28;20373;-79
2021/01/31 06:50:41;;;;;;;;;;;2.10;99.90;;;;;;5072033;28;20008;-77
2021/01/31 06:53:27;;;;;;;;;;;2.10;99.90;;;;;;5077613;28;19912;-78
2021/01/31 06:55:53;;;;;;;;;;;2.10;99.90;;;;;;5083748;28;20339;-77
2021/01/31 06:58:18;;;;;;;;;;;2.10;99.90;;;;;;5072071;28;19909;-77
2021/01/31 07:01:02;;;;;;;;;;;2.10;99.90;;;;;;5072364;28;19940;-77
2021/01/31 07:03:43;;;;;;;;;;;2.10;99.90;;;;;;5074006;28;20253;-77
2021/01/31 07:06:27;;;;;;;;;;;2.10;99.90;;;;;;5080053;28;19909;-77
2021/01/31 07:09:31;;;;;;;;;;;2.10;99.90;;;;;;5086626;28;20280;-77
2021/01/31 07:11:59;;;;;;;;;;;2.10;99.90;;;;;;5029125;28;19996;-77
2021/01/31 07:14:24;;;;;;;;;;;2.10;99.90;;;;;;5029220;28;20337;-77
2021/01/31 07:16:54;;;;;;;;;;;2.10;99.90;;;;;;5042454;28;19995;-79
2021/01/31 07:19:25;;;;;;;;;;;2.10;99.90;;;;;;5072922;28;19920;-77
2021/01/31 07:21:57;;;;;;;;;;;2.10;99.90;;;;;;5091499;28;19908;-76
2021/01/31 07:24:26;;;;;;;;;;;2.10;99.90;;;;;;5090736;28;19908;-77
2021/01/31 07:26:59;;;;;;;;;;;2.10;99.90;;;;;;5090890;28;20201;-77
2021/01/31 07:29:34;;;;;;;;;;;2.10;99.90;;;;;;5091053;28;19908;-77
2021/01/31 07:32:03;;;;;;;;;;;2.10;99.90;;;;;;5090981;28;19920;-77
2021/01/31 07:34:32;;;;;;;;;;;2.10;99.90;;;;;;5077418;28;19908;-78
2021/01/31 07:37:05;;;;;;;;;;;2.10;99.90;;;;;;5079939;28;19912;-77
2021/01/31 07:39:36;;;;;;;;;;;2.10;99.90;;;;;;5081694;28;20380;-78
2021/01/31 07:42:01;;;;;;;;;;;2.10;99.90;;;;;;5091108;28;20258;-77
2021/01/31 07:44:29;;;;;;;;;;;2.00;99.90;;;;;;5091073;28;20010;-77
2021/01/31 07:46:55;;;;;;;;;;;2.10;99.90;;;;;;5090997;28;19912;-77
2021/01/31 07:49:21;;;;;;;;;;;2.10;99.90;;;;;;5089457;28;19915;-77
2021/01/31 07:51:49;;;;;;;;;;;2.10;99.90;;;;;;5090908;28;19926;-79
2021/01/31 07:54:23;;;;;;;;;;;2.20;99.90;;;;;;5090920;28;19912;-77
2021/01/31 07:56:49;;;;;;;;;;;2.20;99.90;;;;;;5072850;28;20382;-78
2021/01/31 07:59:15;;;;;;;;;;;2.20;99.90;;;;;;5071008;28;19908;-78
2021/01/31 08:01:40;;;;;;;;;;;2.20;99.90;;;;;;5071446;28;20024;-77
2021/01/31 08:04:15;;;;;;;;;;;2.20;99.90;;;;;;5077823;28;19954;-76
2021/01/31 08:06:42;;;;;;;;;;;2.20;99.90;;;;;;5070338;28;20339;-76
2021/01/31 08:09:07;;;;;;;;;;;2.20;99.90;;;;;;5071267;28;20007;-77
2021/01/31 08:11:36;;;;;;;;;;;2.30;99.90;;;;;;5070405;28;20004;-79
2021/01/31 08:14:02;;;;;;;;;;;2.30;99.90;;;;;;5070978;28;19913;-77
2021/01/31 08:16:53;;;;;;;;;;;2.30;99.90;;;;;;5073585;28;19961;-77
2021/01/31 08:19:19;;;;;;;;;;;2.30;99.90;;;;;;5084708;28;19908;-77
2021/01/31 08:21:55;;;;;;;;;;;2.30;99.90;;;;;;5082084;28;19920;-77
2021/01/31 08:24:39;;;;;;;;;;;2.30;99.90;;;;;;5077653;28;20365;-76
2021/01/31 08:27:10;;;;;;;;;;;2.30;99.90;;;;;;5078682;28;19909;-77
2021/01/31 08:29:36;;;;;;;;;;;2.30;99.90;;;;;;5082641;28;19908;-78
2021/01/31 08:32:02;;;;;;;;;;;2.30;99.90;;;;;;5091169;28;20012;-77
2021/01/31 08:34:28;;;;;;;;;;;2.30;99.90;;;;;;5086495;28;20338;-77
2021/01/31 08:36:53;;;;;;;;;;;2.30;99.90;;;;;;5097583;28;19908;-77
2021/01/31 08:39:30;;;;;;;;;;;2.30;99.90;;;;;;5083455;28;19967;-77
2021/01/31 08:42:02;;;;;;;;;;;2.30;99.90;;;;;;5083000;28;19908;-77
2021/01/31 08:44:27;;;;;;;;;;;2.30;99.90;;;;;;5090834;28;20325;-79
2021/01/31 08:47:00;;;;;;;;;;;2.30;99.90;;;;;;5089725;28;19914;-77
2021/01/31 08:49:26;;;;;;;;;;;2.40;99.90;;;;;;5091421;28;19908;-77
2021/01/31 08:51:57;;;;;;;;;;;2.40;99.90;;;;;;5091706;28;20474;-77
2021/01/31 08:54:22;;;;;;;;;;;2.50;99.90;;;;;;5071565;28;19962;-78
2021/01/31 08:56:51;;;;;;;;;;;2.50;99.90;;;;;;5072541;28;20349;-78
2021/01/31 08:59:24;;;;;;;;;;;2.50;99.90;;;;;;5087200;28;19940;-78
2021/01/31 09:01:53;;;;;;;;;;;2.60;99.90;;;;;;5071531;28;20281;-77
2021/01/31 09:04:19;;;;;;;;;;;2.60;99.90;;;;;;5079343;28;20305;-77
2021/01/31 09:06:46;;;;;;;;;;;2.60;99.90;;;;;;5084355;28;19999;-77
2021/01/31 09:09:17;;;;;;;;;;;2.60;99.90;;;;;;5074945;28;19912;-77
2021/01/31 09:11:43;;;;;;;;;;;2.60;99.90;;;;;;5094331;28;19908;-77
2021/01/31 09:14:11;;;;;;;;;;;2.60;99.90;;;;;;5094128;28;20007;-79
2021/01/31 09:16:37;;;;;;;;;;;2.60;99.90;;;;;;5085521;28;19954;-78
2021/01/31 09:19:28;;;;;;;;;;;2.70;99.90;;;;;;5094184;28;20280;-77
2021/01/31 09:22:05;;;;;;;;;;;2.70;99.90;;;;;;5086699;28;19920;-77
2021/01/31 09:24:33;;;;;;;;;;;2.80;99.90;;;;;;5081479;28;20003;-77
2021/01/31 09:26:59;;;;;;;;;;;2.80;99.90;;;;;;5091578;28;19923;-77
2021/01/31 09:29:26;;;;;;;;;;;2.80;99.90;;;;;;5088154;28;19909;-77
2021/01/31 09:32:18;;;;;;;;;;;2.90;99.90;;;;;;5072195;28;19917;-78
2021/01/31 09:34:43;;;;;;;;;;;2.90;99.90;;;;;;5102659;28;19908;-79
2021/01/31 09:37:08;;;;;;;;;;;2.90;99.90;;;;;;5112528;28;19933;-77
2021/01/31 09:39:35;;;;;;;;;;;2.90;99.90;;;;;;5111664;28;19912;-77
2021/01/31 09:42:03;;;;;;;;;;;2.90;99.90;;;;;;5086124;28;20311;-77
2021/01/31 09:44:29;;;;;;;;;;;2.90;99.90;;;;;;5093588;28;19915;-77
2021/01/31 09:46:54;;;;;;;;;;;2.90;99.90;;;;;;5101863;28;19907;-77
2021/01/31 09:49:23;;;;;;;;;;;3.00;99.90;;;;;;5099005;28;19912;-77
2021/01/31 09:51:49;;;;;;;;;;;2.90;99.90;;;;;;5078464;28;19962;-77
2021/01/31 09:54:14;;;;;;;;;;;2.90;99.90;;;;;;5073535;28;20315;-77
2021/01/31 09:56:44;;;;;;;;;;;2.90;99.90;;;;;;5072934;28;19934;-78
2021/01/31 09:59:16;;;;;;;;;;;2.90;99.90;;;;;;5076847;28;20372;-77
2021/01/31 10:01:41;;;;;;;;;;;2.90;99.90;;;;;;5083513;28;19913;-77
2021/01/31 10:04:07;;;;;;;;;;;2.80;99.90;;;;;;5080894;28;19934;-77
2021/01/31 10:06:42;;;;;;;;;;;2.90;99.90;;;;;;5092459;28;19916;-77
2021/01/31 10:09:08;;;;;;;;;;;3.00;99.90;;;;;;5093222;28;19987;-77
2021/01/31 10:11:38;;;;;;;;;;;3.00;99.90;;;;;;5077124;28;19948;-77
2021/01/31 10:14:04;;;;;;;;;;;3.10;99.90;;;;;;5073028;28;20355;-77
2021/01/31 10:16:31;;;;;;;;;;;3.20;99.90;;;;;;5072631;28;19924;-78
2021/01/31 10:19:07;;;;;;;;;;;3.30;99.90;;;;;;5072480;28;19912;-76
2021/01/31 10:21:34;;;;;;;;;;;3.30;99.90;;;;;;5072896;28;19916;-77
2021/01/31 10:24:01;;;;;;;;;;;3.40;99.90;;;;;;5072841;28;19954;-77
2021/01/31 10:26:27;;;;;;;;;;;3.50;99.90;;;;;;5071075;28;19948;-77
2021/01/31 10:29:00;;;;;;;;;;;3.60;99.90;;;;;;5072547;28;19952;-78
2021/01/31 10:31:27;;;;;;;;;;;3.70;99.90;;;;;;5072401;28;19923;-77
2021/01/31 10:33:53;;;;;;;;;;;3.80;99.90;;;;;;5078675;28;19912;-77
2021/01/31 10:36:23;;;;;;;;;;;3.90;99.90;;;;;;5085194;28;19915;-78
2021/01/31 10:38:48;;;;;;;;;;;4.00;99.90;;;;;;5072397;28;19912;-77
2021/01/31 10:41:14;;;;;;;;;;;4.10;99.90;;;;;;5072404;28;20366;-77
2021/01/31 10:43:39;;;;;;;;;;;4.20;99.90;;;;;;5072424;28;19919;-78
2021/01/31 10:46:05;;;;;;;;;;;4.30;99.90;;;;;;5071914;28;19916;-79
2021/01/31 10:48:30;;;;;;;;;;;4.30;99.90;;;;;;5072314;28;19908;-77
2021/01/31 10:50:56;;;;;;;;;;;4.40;99.90;;;;;;5072185;28;20275;-77
2021/01/31 10:53:21;;;;;;;;;;;4.40;99.90;;;;;;5072045;28;19916;-78
2021/01/31 10:55:47;;;;;;;;;;;4.30;99.90;;;;;;5071636;28;19915;-78
2021/01/31 10:58:13;;;;;;;;;;;4.30;99.90;;;;;;5071641;28;19938;-78
2021/01/31 11:00:38;;;;;;;;;;;4.20;99.90;;;;;;5071483;28;19908;-77
2021/01/31 11:03:04;;;;;;;;;;;4.20;99.90;;;;;;5073949;28;19914;-78
2021/01/31 11:05:29;;;;;;;;;;;4.20;99.90;;;;;;5083055;28;19958;-77
2021/01/31 11:07:55;;;;;;;;;;;4.20;99.90;;;;;;5071697;28;19908;-77
2021/01/31 11:10:20;;;;;;;;;;;4.10;99.90;;;;;;5071693;28;20325;-77
2021/01/31 11:12:46;;;;;;;;;;;4.10;99.90;;;;;;5071721;28;19919;-77
2021/01/31 11:15:12;;;;;;;;;;;4.10;99.90;;;;;;5084862;28;20273;-80
2021/01/31 11:17:37;;;;;;;;;;;4.20;99.90;;;;;;5091607;28;19914;-79
2021/01/31 11:20:03;;;;;;;;;;;4.20;99.90;;;;;;5091713;28;20296;-77
2021/01/31 11:22:29;;;;;;;;;;;4.20;99.90;;;;;;5091700;28;20421;-77
2021/01/31 11:24:54;;;;;;;;;;;4.20;99.90;;;;;;5090599;28;20381;-76
2021/01/31 11:27:20;;;;;;;;;;;4.30;99.90;;;;;;5090947;28;19919;-78
2021/01/31 11:29:45;;;;;;;;;;;4.30;99.90;;;;;;5090786;28;19908;-77
2021/01/31 11:32:11;;;;;;;;;;;4.30;99.90;;;;;;5090890;28;19916;-77
2021/01/31 11:34:36;;;;;;;;;;;4.30;99.90;;;;;;5083127;28;19908;-77
2021/01/31 11:37:02;;;;;;;;;;;4.40;99.90;;;;;;5075032;28;19909;-80
2021/01/31 11:39:27;;;;;;;;;;;4.40;99.90;;;;;;5070154;28;19962;-77
2021/01/31 11:41:53;;;;;;;;;;;4.40;99.90;;;;;;5071544;28;19999;-77
2021/01/31 11:44:19;;;;;;;;;;;4.50;99.90;;;;;;5071904;28;19909;-77
2021/01/31 11:46:44;;;;;;;;;;;4.50;99.90;;;;;;5075355;28;19908;-79
2021/01/31 11:49:09;;;;;;;;;;;4.60;99.90;;;;;;5071939;28;19909;-77
2021/01/31 11:51:35;;;;;;;;;;;4.60;99.90;;;;;;5070167;28;20024;-77
2021/01/31 11:54:00;;;;;;;;;;;4.60;99.90;;;;;;5088055;28;19916;-77
2021/01/31 11:56:26;;;;;;;;;;;4.50;99.90;;;;;;5090365;28;19958;-77
2021/01/31 11:58:51;;;;;;;;;;;4.40;99.90;;;;;;5090400;28;19939;-77
2021/01/31 12:01:17;;;;;;;;;;;4.30;99.90;;;;;;5090696;28;19912;-77
2021/01/31 12:03:43;;;;;;;;;;;4.30;99.90;;;;;;5082331;28;19908;-78
2021/01/31 12:06:09;;;;;;;;;;;4.30;99.90;;;;;;5084290;28;19908;-78
2021/01/31 12:08:34;;;;;;;;;;;4.20;99.90;;;;;;5071519;28;19977;-78
2021/01/31 12:11:00;;;;;;;;;;;4.20;99.90;;;;;;5073501;28;19955;-77
2021/01/31 12:13:25;;;;;;;;;;;4.20;99.90;;;;;;5075116;28;20441;-78
2021/01/31 12:15:51;;;;;;;;;;;4.30;99.90;;;;;;5074826;28;19908;-78
2021/01/31 12:18:16;;;;;;;;;;;4.30;99.90;;;;;;5075194;28;19908;-80
2021/01/31 12:20:42;;;;;;;;;;;4.40;99.90;;;;;;5075033;28;19915;-77
2021/01/31 12:23:07;;;;;;;;;;;4.50;99.90;;;;;;5075404;28;20365;-77
2021/01/31 12:25:33;;;;;;;;;;;4.50;99.90;;;;;;5073707;28;20019;-80
2021/01/31 12:27:58;;;;;;;;;;;4.50;99.90;;;;;;5093003;28;19919;-78
2021/01/31 12:30:28;;;;;;;;;;;4.50;99.90;;;;;;5094302;28;19916;-78
2021/01/31 12:32:55;;;;;;;;;;;4.50;99.90;;;;;;5083858;28;19912;-78
2021/01/31 12:35:20;;;;;;;;;;;4.50;99.90;;;;;;5084276;28;19913;-77
2021/01/31 12:37:46;;;;;;;;;;;4.40;99.90;;;;;;5074250;28;19954;-78
2021/01/31 12:40:11;;;;;;;;;;;4.40;99.90;;;;;;5094065;28;19915;-79
2021/01/31 12:42:37;;;;;;;;;;;4.30;99.90;;;;;;5094010;28;20284;-77
2021/01/31 12:45:04;;;;;;;;;;;4.30;99.90;;;;;;5094128;28;19909;-77
2021/01/31 12:47:29;;;;;;;;;;;4.20;99.90;;;;;;5093631;28;19908;-80
2021/01/31 12:49:55;;;;;;;;;;;4.20;99.90;;;;;;5093925;28;19953;-77
2021/01/31 12:52:20;;;;;;;;;;;4.10;99.90;;;;;;5094078;28;19919;-78
2021/01/31 12:54:46;;;;;;;;;;;4.00;99.90;;;;;;5093768;28;20361;-78
2021/01/31 12:57:11;;;;;;;;;;;4.00;99.90;;;;;;5093443;28;19976;-77
2021/01/31 12:59:37;;;;;;;;;;;4.00;99.90;;;;;;5093702;28;19912;-78
2021/01/31 13:02:02;;;;;;;;;;;4.00;99.90;;;;;;5093820;28;19908;-78
2021/01/31 13:04:28;;;;;;;;;;;4.10;99.90;;;;;;5088078;28;20003;-80
2021/01/31 13:06:53;;;;;;;;;;;4.20;99.90;;;;;;5081859;28;19908;-78
2021/01/31 13:09:18;;;;;;;;;;;4.20;99.90;;;;;;5072791;28;19915;-78
2021/01/31 13:11:44;;;;;;;;;;;4.20;99.90;;;;;;5074097;28;19916;-78
2021/01/31 13:14:09;;;;;;;;;;;4.20;99.90;;;;;;5072855;28;20014;-77
2021/01/31 13:16:35;;;;;;;;;;;4.20;99.90;;;;;;5073781;28;19908;-77
2021/01/31 13:19:00;;;;;;;;;;;4.30;99.90;;;;;;5073907;28;19913;-78
2021/01/31 13:21:26;;;;;;;;;;;4.40;99.90;;;;;;5088746;28;20369;-77
2021/01/31 13:23:51;;;;;;;;;;;4.40;99.90;;;;;;5092984;28;20097;-77
2021/01/31 13:26:17;;;;;;;;;;;4.40;99.90;;;;;;5092954;28;20323;-78
2021/01/31 13:28:42;;;;;;;;;;;4.50;99.90;;;;;;5093073;28;19912;-78
2021/01/31 13:31:08;;;;;;;;;;;4.60;99.90;;;;;;5093048;28;19916;-77
2021/01/31 13:33:34;;;;;;;;;;;4.60;99.90;;;;;;5085034;28;20307;-77
2021/01/31 13:35:59;;;;;;;;;;;4.60;99.90;;;;;;5085228;28;19934;-78
2021/01/31 13:38:25;;;;;;;;;;;4.70;99.90;;;;;;5080679;28;19953;-80
2021/01/31 13:40:50;;;;;;;;;;;4.70;99.90;;;;;;5093008;28;19912;-78
2021/01/31 13:43:16;;;;;;;;;;;4.80;99.90;;;;;;5093058;28;20158;-77
2021/01/31 13:45:42;;;;;;;;;;;4.80;99.90;;;;;;5092687;28;19935;-78
2021/01/31 13:48:08;;;;;;;;;;;4.80;99.90;;;;;;5073397;28;19974;-78
2021/01/31 13:50:33;;;;;;;;;;;4.90;99.90;;;;;;5073349;28;19962;-77
2021/01/31 13:52:59;;;;;;;;;;;5.00;99.90;;;;;;5073274;28;19923;-77
2021/01/31 13:55:24;;;;;;;;;;;5.00;99.90;;;;;;5073409;28;20429;-77
2021/01/31 13:57:49;;;;;;;;;;;5.00;99.90;;;;;;5072814;28;19912;-78
2021/01/31 14:00:16;;;;;;;;;;;5.00;99.90;;;;;;5073263;28;19916;-80
2021/01/31 14:02:42;;;;;;;;;;;5.10;99.90;;;;;;5073020;28;19992;-78
2021/01/31 14:05:08;;;;;;;;;;;5.10;99.90;;;;;;5081978;28;19995;-78
2021/01/31 14:07:34;;;;;;;;;;;5.10;99.90;;;;;;5073373;28;20403;-77
2021/01/31 14:09:59;;;;;;;;;;;5.00;99.90;;;;;;5090540;28;19912;-78
2021/01/31 14:12:25;;;;;;;;;;;5.10;99.90;;;;;;5091973;28;19974;-77
2021/01/31 14:14:50;;;;;;;;;;;5.10;99.90;;;;;;5092234;28;19954;-77
2021/01/31 14:17:16;;;;;;;;;;;5.10;99.90;;;;;;5091956;28;20353;-77
2021/01/31 14:19:41;;;;;;;;;;;5.10;99.90;;;;;;5090275;28;19919;-77
2021/01/31 14:22:07;;;;;;;;;;;5.10;99.90;;;;;;5088780;28;19915;-77
2021/01/31 14:24:32;;;;;;;;;;;5.10;99.90;;;;;;5075230;28;19908;-77
2021/01/31 14:26:58;;;;;;;;;;;5.00;99.90;;;;;;5072108;28;19991;-78
2021/01/31 14:29:23;;;;;;;;;;;5.00;99.90;;;;;;5075067;28;19909;-77
2021/01/31 14:31:49;;;;;;;;;;;5.00;99.90;;;;;;5091790;28;19916;-77
2021/01/31 14:34:14;;;;;;;;;;;5.00;99.90;;;;;;5091707;28;19964;-77
2021/01/31 14:36:40;;;;;;;;;;;5.00;99.90;;;;;;5091543;28;20307;-79
2021/01/31 14:39:05;;;;;;;;;;;5.00;99.90;;;;;;5091791;28;19930;-77